createdAt,value
2019-03-31T00:00:04.474Z,11.47
2019-03-31T00:01:08.397Z,11.47
2019-03-31T00:02:04.467Z,11.52
2019-03-31T00:03:04.463Z,11.51
2019-03-31T00:04:04.461Z,11.48
2019-03-31T00:05:04.456Z,11.48
2019-03-31T00:06:04.453Z,11.50
2019-03-31T00:07:04.750Z,11.55
2019-03-31T00:08:04.448Z,11.52
2019-03-31T00:09:04.441Z,11.55
2019-03-31T00:10:04.440Z,11.50
2019-03-31T00:11:04.432Z,11.48
2019-03-31T00:12:04.430Z,11.52
2019-03-31T00:13:04.433Z,11.50
2019-03-31T00:14:04.422Z,11.50
2019-03-31T00:15:04.419Z,11.50
2019-03-31T00:16:04.414Z,11.44
2019-03-31T00:17:04.409Z,11.44
2019-03-31T00:18:04.406Z,11.40
2019-03-31T00:19:04.401Z,11.45
2019-03-31T00:20:04.399Z,11.40
2019-03-31T00:21:04.398Z,11.44
2019-03-31T00:22:04.392Z,11.35
2019-03-31T00:23:04.388Z,11.40
2019-03-31T00:24:04.382Z,11.37
2019-03-31T00:25:04.379Z,11.33
2019-03-31T00:26:04.375Z,11.45
2019-03-31T00:27:04.371Z,11.44
2019-03-31T00:28:04.369Z,11.43
2019-03-31T00:29:04.364Z,11.44
2019-03-31T00:30:04.361Z,11.52
2019-03-31T00:31:04.358Z,11.54
2019-03-31T00:32:04.357Z,11.40
2019-03-31T00:33:04.350Z,11.44
2019-03-31T00:34:04.345Z,11.47
2019-03-31T00:35:04.341Z,11.44
2019-03-31T00:36:04.339Z,11.40
2019-03-31T00:37:07.427Z,11.35
2019-03-31T00:38:04.330Z,11.35
2019-03-31T00:39:04.327Z,11.26
2019-03-31T00:40:04.324Z,11.19
2019-03-31T00:41:04.317Z,11.18
2019-03-31T00:42:04.313Z,11.07
2019-03-31T00:43:04.310Z,11.04
2019-03-31T00:44:04.306Z,11.04
2019-03-31T00:45:04.304Z,11.07
2019-03-31T00:46:04.299Z,10.97
2019-03-31T00:47:04.295Z,10.99
2019-03-31T00:48:04.294Z,10.90
2019-03-31T00:49:04.287Z,10.90
2019-03-31T00:50:04.283Z,10.74
2019-03-31T00:51:04.284Z,10.74
2019-03-31T00:52:04.279Z,10.74
2019-03-31T00:53:04.272Z,10.64
2019-03-31T00:54:04.269Z,10.61
2019-03-31T00:55:04.268Z,10.57
2019-03-31T00:56:04.261Z,10.56
2019-03-31T00:57:04.264Z,10.56
2019-03-31T00:58:04.252Z,10.41
2019-03-31T00:59:04.248Z,10.46
2019-03-31T01:00:04.246Z,10.44
2019-03-31T01:01:04.242Z,10.38
2019-03-31T01:02:04.239Z,10.31
2019-03-31T01:03:04.233Z,10.34
2019-03-31T01:04:04.228Z,10.37
2019-03-31T01:05:04.224Z,10.40
2019-03-31T01:06:04.221Z,10.31
2019-03-31T01:07:04.216Z,10.38
2019-03-31T01:08:04.212Z,10.38
2019-03-31T01:09:04.210Z,10.26
2019-03-31T01:10:04.206Z,10.28
2019-03-31T01:11:04.202Z,10.16
2019-03-31T01:12:04.199Z,10.20
2019-03-31T01:13:04.194Z,10.15
2019-03-31T01:14:04.190Z,10.13
2019-03-31T01:15:04.184Z,10.05
2019-03-31T01:16:04.183Z,9.92
2019-03-31T01:17:04.177Z,9.98
2019-03-31T01:18:04.173Z,9.94
2019-03-31T01:19:04.170Z,9.82
2019-03-31T01:20:04.218Z,9.76
2019-03-31T01:21:04.161Z,9.77
2019-03-31T01:22:04.156Z,9.72
2019-03-31T01:23:04.152Z,9.73
2019-03-31T01:24:04.149Z,9.65
2019-03-31T01:25:04.144Z,9.65
2019-03-31T01:26:04.139Z,9.72
2019-03-31T01:27:04.135Z,9.62
2019-03-31T01:28:04.132Z,9.65
2019-03-31T01:29:04.128Z,9.59
2019-03-31T01:30:04.124Z,9.58
2019-03-31T01:31:04.121Z,9.51
2019-03-31T01:32:04.121Z,9.56
2019-03-31T01:33:04.109Z,9.41
2019-03-31T01:34:04.106Z,9.39
2019-03-31T01:35:04.101Z,9.43
2019-03-31T01:36:04.098Z,9.31
2019-03-31T01:37:04.092Z,9.28
2019-03-31T01:38:04.090Z,9.36
2019-03-31T01:39:04.085Z,9.36
2019-03-31T01:40:04.081Z,9.25
2019-03-31T01:41:04.076Z,9.26
2019-03-31T01:42:04.073Z,9.18
2019-03-31T01:43:04.067Z,9.14
2019-03-31T01:44:04.063Z,9.13
2019-03-31T01:45:04.057Z,9.08
2019-03-31T01:46:04.053Z,9.00
2019-03-31T01:47:04.050Z,9.02
2019-03-31T01:48:04.046Z,9.02
2019-03-31T01:49:04.039Z,9.06
2019-03-31T01:50:04.036Z,8.97
2019-03-31T01:51:04.032Z,9.08
2019-03-31T01:52:04.029Z,8.95
2019-03-31T01:53:04.023Z,8.89
2019-03-31T01:54:04.018Z,8.97
2019-03-31T01:55:04.013Z,8.88
2019-03-31T01:56:04.012Z,8.88
2019-03-31T01:57:04.008Z,8.84
2019-03-31T01:58:04.000Z,8.85
2019-03-31T01:59:03.997Z,8.87
2019-03-31T02:00:03.994Z,8.78
2019-03-31T02:01:03.989Z,8.87
2019-03-31T02:02:04.793Z,8.91
2019-03-31T02:03:03.977Z,9.02
2019-03-31T02:04:03.977Z,9.04
2019-03-31T02:05:03.969Z,9.23
2019-03-31T02:06:03.966Z,9.26
2019-03-31T02:07:03.958Z,9.34
2019-03-31T02:08:03.953Z,9.43
2019-03-31T02:09:03.948Z,9.31
2019-03-31T02:10:03.944Z,9.28
2019-03-31T02:11:03.941Z,9.31
2019-03-31T02:12:03.936Z,9.29
2019-03-31T02:13:03.929Z,9.26
2019-03-31T02:14:03.926Z,9.29
2019-03-31T02:15:03.923Z,9.26
2019-03-31T02:16:03.919Z,9.32
2019-03-31T02:17:03.913Z,9.43
2019-03-31T02:18:03.907Z,9.41
2019-03-31T02:19:03.904Z,9.36
2019-03-31T02:20:03.897Z,9.50
2019-03-31T02:21:03.891Z,9.46
2019-03-31T02:22:03.893Z,9.66
2019-03-31T02:23:03.883Z,9.65
2019-03-31T02:24:03.878Z,9.55
2019-03-31T02:25:03.876Z,9.64
2019-03-31T02:26:03.871Z,9.56
2019-03-31T02:27:03.863Z,9.56
2019-03-31T02:28:03.861Z,9.48
2019-03-31T02:29:03.856Z,9.58
2019-03-31T02:30:03.857Z,9.54
2019-03-31T02:31:03.851Z,9.61
2019-03-31T02:32:22.050Z,9.61
2019-03-31T02:33:03.836Z,9.62
2019-03-31T02:34:03.832Z,9.58
2019-03-31T02:35:03.829Z,9.56
2019-03-31T02:36:03.823Z,9.54
2019-03-31T02:37:03.818Z,9.47
2019-03-31T02:38:03.829Z,9.47
2019-03-31T02:39:03.812Z,9.54
2019-03-31T02:40:03.806Z,9.41
2019-03-31T02:41:03.800Z,9.41
2019-03-31T02:42:03.796Z,9.36
2019-03-31T02:43:03.791Z,9.47
2019-03-31T02:44:03.787Z,9.43
2019-03-31T02:45:03.786Z,9.43
2019-03-31T02:46:03.821Z,9.43
2019-03-31T02:47:03.773Z,9.40
2019-03-31T02:48:03.771Z,9.41
2019-03-31T02:49:03.766Z,9.37
2019-03-31T02:50:03.757Z,9.43
2019-03-31T02:51:03.754Z,9.34
2019-03-31T02:52:03.750Z,9.46
2019-03-31T02:53:03.743Z,9.41
2019-03-31T02:54:03.739Z,9.50
2019-03-31T02:55:03.735Z,9.56
2019-03-31T02:56:03.732Z,9.51
2019-03-31T02:57:03.725Z,9.55
2019-03-31T02:58:03.720Z,9.46
2019-03-31T02:59:03.717Z,9.61
2019-03-31T03:00:03.714Z,9.61
2019-03-31T03:01:03.705Z,9.58
2019-03-31T03:02:03.701Z,9.46
2019-03-31T03:03:03.698Z,9.46
2019-03-31T03:04:07.574Z,9.43
2019-03-31T03:05:17.833Z,9.46
2019-03-31T03:06:03.683Z,9.54
2019-03-31T03:07:03.679Z,9.47
2019-03-31T03:08:03.673Z,9.46
2019-03-31T03:09:03.686Z,9.56
2019-03-31T03:10:03.667Z,9.50
2019-03-31T03:11:03.663Z,9.51
2019-03-31T03:12:03.675Z,9.51
2019-03-31T03:13:03.652Z,9.54
2019-03-31T03:14:03.660Z,9.47
2019-03-31T03:15:03.643Z,9.48
2019-03-31T03:16:03.638Z,9.54
2019-03-31T03:17:03.628Z,9.54
2019-03-31T03:18:03.626Z,9.47
2019-03-31T03:19:03.618Z,9.32
2019-03-31T03:20:03.614Z,9.37
2019-03-31T03:21:03.612Z,9.47
2019-03-31T03:22:03.609Z,9.46
2019-03-31T03:23:03.601Z,9.39
2019-03-31T03:24:03.596Z,9.29
2019-03-31T03:25:03.593Z,9.31
2019-03-31T03:26:03.585Z,9.32
2019-03-31T03:27:03.584Z,9.31
2019-03-31T03:28:03.586Z,9.28
2019-03-31T03:29:03.571Z,9.29
2019-03-31T03:30:03.568Z,9.25
2019-03-31T03:31:03.965Z,9.25
2019-03-31T03:32:03.564Z,9.22
2019-03-31T03:33:18.344Z,9.18
2019-03-31T03:34:03.556Z,9.18
2019-03-31T03:35:03.545Z,9.19
2019-03-31T03:36:03.550Z,9.19
2019-03-31T03:37:03.534Z,9.22
2019-03-31T03:38:03.547Z,9.10
2019-03-31T03:39:03.537Z,9.13
2019-03-31T03:40:03.520Z,9.18
2019-03-31T03:41:03.512Z,9.10
2019-03-31T03:42:03.514Z,9.13
2019-03-31T03:43:03.508Z,9.13
2019-03-31T03:44:03.506Z,9.08
2019-03-31T03:45:03.499Z,9.08
2019-03-31T03:46:03.487Z,9.06
2019-03-31T03:47:03.490Z,8.92
2019-03-31T03:48:03.479Z,8.95
2019-03-31T03:49:03.594Z,8.95
2019-03-31T03:50:03.474Z,8.87
2019-03-31T03:51:03.462Z,8.88
2019-03-31T03:52:03.465Z,8.87
2019-03-31T03:53:03.453Z,8.82
2019-03-31T03:54:03.448Z,8.84
2019-03-31T03:55:03.443Z,8.66
2019-03-31T03:56:03.437Z,8.64
2019-03-31T03:57:03.431Z,8.67
2019-03-31T03:58:03.428Z,8.67
2019-03-31T03:59:03.422Z,8.63
2019-03-31T04:00:03.423Z,8.61
2019-03-31T04:01:03.415Z,8.61
2019-03-31T04:02:03.405Z,8.52
2019-03-31T04:03:03.405Z,8.56
2019-03-31T04:04:03.398Z,8.53
2019-03-31T04:05:03.405Z,8.58
2019-03-31T04:06:03.384Z,8.52
2019-03-31T04:07:03.378Z,8.49
2019-03-31T04:08:03.373Z,8.44
2019-03-31T04:09:03.369Z,8.53
2019-03-31T04:10:03.363Z,8.56
2019-03-31T04:11:03.362Z,8.52
2019-03-31T04:12:03.366Z,8.52
2019-03-31T04:13:03.348Z,8.55
2019-03-31T04:14:03.343Z,8.52
2019-03-31T04:15:03.338Z,8.49
2019-03-31T04:16:03.331Z,8.46
2019-03-31T04:17:03.326Z,8.53
2019-03-31T04:18:03.324Z,8.55
2019-03-31T04:19:03.319Z,8.53
2019-03-31T04:20:03.314Z,8.46
2019-03-31T04:21:03.308Z,8.51
2019-03-31T04:22:03.300Z,8.51
2019-03-31T04:23:03.301Z,8.48
2019-03-31T04:24:03.297Z,8.46
2019-03-31T04:25:03.286Z,8.41
2019-03-31T04:26:03.281Z,8.42
2019-03-31T04:27:03.285Z,8.33
2019-03-31T04:28:03.275Z,8.31
2019-03-31T04:29:03.261Z,8.34
2019-03-31T04:30:03.278Z,8.36
2019-03-31T04:31:03.252Z,8.31
2019-03-31T04:32:03.265Z,8.31
2019-03-31T04:33:03.271Z,8.34
2019-03-31T04:34:03.241Z,8.34
2019-03-31T04:35:03.234Z,8.34
2019-03-31T04:36:03.226Z,8.28
2019-03-31T04:37:03.218Z,8.30
2019-03-31T04:38:03.218Z,8.30
2019-03-31T04:39:03.206Z,8.34
2019-03-31T04:40:03.206Z,8.20
2019-03-31T04:41:03.195Z,8.23
2019-03-31T04:42:03.189Z,8.24
2019-03-31T04:43:03.184Z,8.20
2019-03-31T04:44:03.179Z,8.24
2019-03-31T04:45:03.174Z,8.28
2019-03-31T04:46:03.171Z,8.19
2019-03-31T04:47:03.163Z,8.24
2019-03-31T04:48:03.157Z,8.23
2019-03-31T04:49:03.150Z,8.19
2019-03-31T04:50:03.146Z,8.13
2019-03-31T04:51:03.139Z,8.19
2019-03-31T04:52:03.137Z,8.16
2019-03-31T04:53:03.129Z,8.16
2019-03-31T04:54:03.124Z,8.16
2019-03-31T04:55:03.116Z,8.18
2019-03-31T04:56:03.113Z,8.15
2019-03-31T04:57:04.507Z,8.16
2019-03-31T04:58:03.100Z,8.18
2019-03-31T04:59:03.095Z,8.10
2019-03-31T05:00:03.089Z,8.18
2019-03-31T05:01:03.082Z,8.15
2019-03-31T05:02:03.076Z,8.19
2019-03-31T05:03:03.073Z,8.15
2019-03-31T05:04:05.011Z,8.09
2019-03-31T05:05:03.062Z,8.19
2019-03-31T05:06:03.054Z,8.13
2019-03-31T05:07:03.050Z,8.19
2019-03-31T05:08:03.044Z,8.18
2019-03-31T05:09:03.038Z,8.15
2019-03-31T05:10:03.030Z,8.09
2019-03-31T05:11:03.028Z,8.10
2019-03-31T05:12:03.021Z,8.13
2019-03-31T05:13:03.015Z,8.15
2019-03-31T05:14:03.008Z,8.19
2019-03-31T05:15:03.003Z,8.19
2019-03-31T05:16:02.998Z,8.23
2019-03-31T05:17:02.994Z,8.16
2019-03-31T05:18:02.985Z,8.24
2019-03-31T05:19:02.992Z,8.20
2019-03-31T05:20:02.977Z,8.16
2019-03-31T05:21:02.970Z,8.15
2019-03-31T05:22:02.967Z,8.10
2019-03-31T05:23:02.968Z,8.15
2019-03-31T05:24:02.953Z,8.10
2019-03-31T05:25:02.949Z,8.18
2019-03-31T05:26:02.940Z,8.23
2019-03-31T05:27:02.936Z,8.24
2019-03-31T05:28:02.929Z,8.24
2019-03-31T05:29:02.923Z,8.26
2019-03-31T05:30:02.919Z,8.20
2019-03-31T05:31:02.916Z,8.24
2019-03-31T05:32:02.907Z,8.27
2019-03-31T05:33:02.901Z,8.26
2019-03-31T05:34:02.894Z,8.16
2019-03-31T05:35:02.897Z,8.27
2019-03-31T05:36:02.884Z,8.26
2019-03-31T05:37:02.877Z,8.24
2019-03-31T05:38:02.872Z,8.18
2019-03-31T05:39:02.876Z,8.03
2019-03-31T05:40:02.861Z,8.06
2019-03-31T05:41:02.858Z,8.00
2019-03-31T05:42:02.854Z,8.06
2019-03-31T05:43:02.844Z,8.00
2019-03-31T05:44:05.964Z,8.01
2019-03-31T05:45:02.832Z,7.98
2019-03-31T05:46:02.827Z,8.05
2019-03-31T05:47:02.824Z,7.97
2019-03-31T05:48:02.816Z,7.94
2019-03-31T05:49:02.814Z,7.98
2019-03-31T05:50:02.804Z,7.97
2019-03-31T05:51:02.800Z,8.03
2019-03-31T05:52:02.801Z,7.95
2019-03-31T05:53:02.837Z,7.93
2019-03-31T05:54:02.781Z,7.97
2019-03-31T05:55:02.776Z,7.91
2019-03-31T05:56:02.772Z,7.90
2019-03-31T05:57:02.763Z,7.93
2019-03-31T05:58:02.759Z,7.93
2019-03-31T05:59:02.753Z,7.94
2019-03-31T06:00:02.747Z,7.97
2019-03-31T06:01:02.741Z,7.98
2019-03-31T06:02:02.736Z,7.91
2019-03-31T06:03:02.732Z,8.00
2019-03-31T06:04:02.725Z,8.06
2019-03-31T06:05:02.720Z,7.98
2019-03-31T06:06:02.713Z,8.03
2019-03-31T06:07:02.708Z,8.06
2019-03-31T06:08:02.706Z,8.08
2019-03-31T06:09:02.697Z,8.10
2019-03-31T06:10:02.690Z,8.08
2019-03-31T06:11:02.693Z,8.00
2019-03-31T06:12:02.685Z,8.16
2019-03-31T06:13:02.673Z,8.15
2019-03-31T06:14:02.668Z,8.23
2019-03-31T06:15:02.661Z,8.20
2019-03-31T06:16:02.657Z,8.16
2019-03-31T06:17:02.653Z,8.26
2019-03-31T06:18:02.645Z,8.20
2019-03-31T06:19:02.643Z,8.28
2019-03-31T06:20:02.636Z,8.24
2019-03-31T06:21:02.628Z,8.19
2019-03-31T06:22:02.626Z,8.28
2019-03-31T06:23:02.616Z,8.36
2019-03-31T06:24:02.613Z,8.34
2019-03-31T06:25:02.607Z,8.31
2019-03-31T06:26:02.601Z,8.31
2019-03-31T06:27:02.596Z,8.42
2019-03-31T06:28:02.592Z,8.31
2019-03-31T06:29:02.583Z,8.31
2019-03-31T06:30:02.576Z,8.42
2019-03-31T06:31:02.574Z,8.49
2019-03-31T06:32:02.565Z,8.60
2019-03-31T06:33:02.564Z,8.64
2019-03-31T06:34:02.555Z,8.66
2019-03-31T06:35:02.553Z,8.55
2019-03-31T06:36:02.544Z,8.67
2019-03-31T06:37:02.538Z,8.66
2019-03-31T06:38:02.532Z,8.70
2019-03-31T06:39:02.529Z,8.76
2019-03-31T06:40:02.524Z,8.89
2019-03-31T06:41:02.517Z,8.74
2019-03-31T06:42:02.510Z,8.85
2019-03-31T06:43:02.507Z,8.79
2019-03-31T06:44:02.499Z,8.82
2019-03-31T06:45:02.495Z,8.97
2019-03-31T06:46:02.488Z,8.97
2019-03-31T06:47:02.485Z,8.95
2019-03-31T06:48:02.478Z,9.04
2019-03-31T06:49:02.477Z,9.18
2019-03-31T06:50:02.469Z,9.18
2019-03-31T06:51:02.465Z,9.14
2019-03-31T06:52:02.458Z,9.14
2019-03-31T06:53:02.454Z,9.08
2019-03-31T06:54:02.450Z,9.16
2019-03-31T06:55:02.444Z,9.11
2019-03-31T06:56:02.440Z,9.14
2019-03-31T06:57:02.434Z,9.23
2019-03-31T06:58:02.431Z,9.29
2019-03-31T06:59:02.422Z,9.14
2019-03-31T07:00:02.418Z,9.29
2019-03-31T07:01:02.429Z,9.25
2019-03-31T07:02:03.147Z,9.40
2019-03-31T07:03:02.405Z,9.44
2019-03-31T07:04:02.397Z,9.51
2019-03-31T07:05:02.394Z,9.51
2019-03-31T07:06:02.387Z,9.66
2019-03-31T07:07:02.384Z,9.62
2019-03-31T07:08:02.379Z,9.65
2019-03-31T07:09:02.377Z,9.66
2019-03-31T07:10:02.373Z,9.84
2019-03-31T07:11:02.365Z,9.83
2019-03-31T07:12:02.364Z,9.66
2019-03-31T07:13:02.355Z,9.44
2019-03-31T07:14:02.351Z,9.54
2019-03-31T07:15:02.346Z,9.65
2019-03-31T07:16:02.344Z,9.66
2019-03-31T07:17:02.337Z,9.66
2019-03-31T07:18:02.331Z,9.68
2019-03-31T07:19:02.400Z,9.68
2019-03-31T07:20:02.328Z,9.61
2019-03-31T07:21:02.319Z,9.58
2019-03-31T07:22:02.328Z,9.58
2019-03-31T07:23:02.311Z,9.55
2019-03-31T07:24:02.395Z,9.43
2019-03-31T07:25:02.299Z,9.37
2019-03-31T07:26:02.299Z,9.34
2019-03-31T07:27:02.292Z,9.41
2019-03-31T07:28:02.289Z,9.29
2019-03-31T07:29:02.285Z,9.36
2019-03-31T07:30:02.277Z,9.56
2019-03-31T07:31:02.274Z,9.69
2019-03-31T07:32:02.269Z,9.66
2019-03-31T07:33:02.266Z,9.91
2019-03-31T07:34:02.258Z,9.98
2019-03-31T07:35:02.255Z,10.12
2019-03-31T07:36:02.254Z,10.10
2019-03-31T07:37:02.246Z,9.86
2019-03-31T07:38:02.243Z,9.68
2019-03-31T07:39:02.239Z,9.66
2019-03-31T07:40:02.385Z,9.83
2019-03-31T07:41:12.602Z,9.84
2019-03-31T07:42:02.320Z,9.95
2019-03-31T07:43:02.251Z,10.02
2019-03-31T07:44:02.213Z,10.02
2019-03-31T07:45:02.209Z,10.13
2019-03-31T07:46:02.205Z,10.19
2019-03-31T07:47:02.201Z,10.12
2019-03-31T07:48:02.197Z,10.17
2019-03-31T07:49:02.192Z,10.16
2019-03-31T07:50:02.188Z,10.33
2019-03-31T07:51:02.186Z,10.31
2019-03-31T07:52:02.178Z,10.28
2019-03-31T07:53:02.174Z,10.22
2019-03-31T07:54:02.169Z,10.37
2019-03-31T07:55:02.166Z,10.46
2019-03-31T07:56:02.162Z,10.35
2019-03-31T07:57:02.157Z,10.33
2019-03-31T07:58:02.177Z,10.54
2019-03-31T07:59:02.159Z,10.44
2019-03-31T08:00:02.150Z,10.30
2019-03-31T08:01:02.140Z,10.15
2019-03-31T08:02:02.136Z,10.09
2019-03-31T08:03:02.138Z,10.20
2019-03-31T08:04:02.129Z,10.23
2019-03-31T08:05:02.124Z,10.25
2019-03-31T08:06:02.126Z,10.38
2019-03-31T08:07:02.124Z,10.34
2019-03-31T08:08:02.113Z,10.35
2019-03-31T08:09:02.109Z,10.28
2019-03-31T08:10:02.106Z,10.28
2019-03-31T08:11:02.100Z,10.26
2019-03-31T08:12:02.111Z,10.28
2019-03-31T08:13:02.091Z,10.38
2019-03-31T08:14:02.090Z,10.33
2019-03-31T08:15:02.087Z,10.34
2019-03-31T08:16:02.084Z,10.23
2019-03-31T08:17:02.076Z,10.38
2019-03-31T08:18:02.072Z,10.35
2019-03-31T08:19:02.069Z,10.42
2019-03-31T08:20:02.064Z,10.33
2019-03-31T08:21:02.058Z,10.26
2019-03-31T08:22:02.056Z,10.30
2019-03-31T08:23:02.051Z,10.23
2019-03-31T08:24:02.048Z,10.25
2019-03-31T08:25:02.043Z,10.23
2019-03-31T08:26:02.041Z,10.25
2019-03-31T08:27:05.360Z,10.25
2019-03-31T08:28:02.031Z,10.34
2019-03-31T08:29:02.028Z,10.25
2019-03-31T08:30:02.024Z,10.31
2019-03-31T08:31:02.018Z,10.37
2019-03-31T08:32:02.014Z,10.51
2019-03-31T08:33:02.011Z,10.75
2019-03-31T08:34:02.005Z,10.99
2019-03-31T08:35:02.005Z,11.18
2019-03-31T08:36:02.031Z,11.40
2019-03-31T08:37:01.992Z,11.54
2019-03-31T08:38:01.991Z,11.55
2019-03-31T08:39:01.984Z,11.81
2019-03-31T08:40:02.002Z,11.51
2019-03-31T08:41:01.980Z,11.59
2019-03-31T08:42:01.975Z,11.60
2019-03-31T08:43:01.970Z,11.62
2019-03-31T08:44:01.969Z,11.68
2019-03-31T08:45:01.963Z,11.75
2019-03-31T08:46:01.960Z,11.54
2019-03-31T08:47:01.956Z,11.04
2019-03-31T08:48:01.953Z,11.08
2019-03-31T08:49:01.950Z,10.96
2019-03-31T08:50:02.703Z,10.96
2019-03-31T08:51:01.943Z,11.08
2019-03-31T08:52:01.941Z,11.11
2019-03-31T08:53:01.935Z,11.04
2019-03-31T08:54:01.933Z,11.14
2019-03-31T08:55:01.930Z,10.97
2019-03-31T08:56:01.931Z,11.17
2019-03-31T08:57:01.924Z,11.36
2019-03-31T08:58:01.919Z,11.87
2019-03-31T08:59:01.918Z,12.12
2019-03-31T09:00:01.915Z,12.27
2019-03-31T09:01:01.912Z,12.03
2019-03-31T09:02:03.256Z,11.91
2019-03-31T09:03:01.906Z,11.45
2019-03-31T09:04:01.924Z,11.32
2019-03-31T09:05:01.904Z,11.12
2019-03-31T09:06:02.644Z,11.22
2019-03-31T09:07:01.900Z,11.27
2019-03-31T09:08:01.890Z,11.37
2019-03-31T09:09:01.886Z,11.41
2019-03-31T09:10:01.883Z,11.11
2019-03-31T09:11:01.978Z,11.12
2019-03-31T09:12:01.880Z,11.12
2019-03-31T09:13:01.876Z,11.00
2019-03-31T09:14:01.872Z,11.22
2019-03-31T09:15:01.869Z,11.33
2019-03-31T09:16:01.866Z,11.30
2019-03-31T09:17:01.866Z,11.32
2019-03-31T09:18:01.859Z,11.00
2019-03-31T09:19:01.857Z,10.79
2019-03-31T09:20:01.854Z,10.67
2019-03-31T09:21:01.849Z,10.79
2019-03-31T09:22:01.848Z,10.99
2019-03-31T09:23:01.843Z,11.05
2019-03-31T09:24:01.842Z,10.94
2019-03-31T09:25:01.845Z,11.08
2019-03-31T09:26:01.835Z,10.99
2019-03-31T09:27:01.833Z,10.93
2019-03-31T09:28:01.829Z,10.87
2019-03-31T09:29:01.823Z,10.94
2019-03-31T09:30:01.869Z,10.97
2019-03-31T09:31:01.817Z,10.92
2019-03-31T09:32:01.814Z,10.75
2019-03-31T09:33:01.809Z,10.69
2019-03-31T09:34:01.806Z,10.67
2019-03-31T09:35:01.803Z,10.72
2019-03-31T09:36:15.046Z,10.61
2019-03-31T09:37:01.795Z,10.57
2019-03-31T09:38:01.798Z,10.69
2019-03-31T09:39:01.789Z,10.60
2019-03-31T09:40:01.793Z,10.74
2019-03-31T09:41:01.781Z,10.82
2019-03-31T09:42:01.778Z,10.87
2019-03-31T09:43:01.777Z,10.99
2019-03-31T09:44:01.770Z,10.96
2019-03-31T09:45:01.766Z,11.14
2019-03-31T09:46:01.766Z,11.02
2019-03-31T09:47:01.759Z,11.15
2019-03-31T09:48:01.758Z,11.27
2019-03-31T09:49:01.751Z,11.27
2019-03-31T09:50:01.749Z,11.27
2019-03-31T09:51:01.747Z,11.17
2019-03-31T09:52:01.742Z,11.14
2019-03-31T09:53:01.735Z,11.23
2019-03-31T09:54:01.735Z,11.14
2019-03-31T09:55:01.729Z,11.14
2019-03-31T09:56:01.726Z,10.97
2019-03-31T09:57:01.721Z,11.15
2019-03-31T09:58:01.722Z,11.35
2019-03-31T09:59:01.714Z,11.43
2019-03-31T10:00:01.711Z,11.44
2019-03-31T10:01:01.712Z,11.52
2019-03-31T10:02:01.704Z,11.52
2019-03-31T10:03:01.708Z,11.37
2019-03-31T10:04:01.697Z,11.45
2019-03-31T10:05:01.694Z,11.52
2019-03-31T10:06:10.594Z,11.50
2019-03-31T10:07:01.685Z,11.57
2019-03-31T10:08:01.689Z,11.72
2019-03-31T10:09:01.678Z,11.78
2019-03-31T10:10:01.674Z,11.94
2019-03-31T10:11:03.073Z,11.95
2019-03-31T10:12:01.669Z,11.60
2019-03-31T10:13:01.664Z,11.30
2019-03-31T10:14:01.662Z,11.32
2019-03-31T10:15:01.668Z,11.41
2019-03-31T10:16:01.657Z,11.51
2019-03-31T10:17:01.654Z,11.81
2019-03-31T10:18:01.654Z,12.06
2019-03-31T10:19:01.647Z,12.25
2019-03-31T10:20:01.643Z,11.99
2019-03-31T10:21:01.640Z,11.77
2019-03-31T10:22:01.636Z,11.50
2019-03-31T10:23:01.633Z,11.44
2019-03-31T10:24:01.629Z,11.41
2019-03-31T10:25:01.626Z,11.50
2019-03-31T10:26:01.625Z,11.32
2019-03-31T10:27:01.621Z,11.48
2019-03-31T10:28:01.618Z,11.65
2019-03-31T10:29:01.615Z,11.47
2019-03-31T10:30:01.622Z,11.36
2019-03-31T10:31:01.607Z,11.50
2019-03-31T10:32:01.606Z,11.69
2019-03-31T10:33:01.601Z,11.69
2019-03-31T10:34:01.599Z,11.81
2019-03-31T10:35:01.601Z,11.99
2019-03-31T10:36:01.593Z,12.04
2019-03-31T10:37:01.589Z,12.12
2019-03-31T10:38:01.587Z,12.07
2019-03-31T10:39:01.585Z,11.99
2019-03-31T10:40:01.581Z,12.12
2019-03-31T10:41:01.577Z,12.20
2019-03-31T10:42:01.574Z,12.24
2019-03-31T10:43:01.570Z,12.13
2019-03-31T10:44:01.568Z,12.03
2019-03-31T10:45:01.569Z,12.13
2019-03-31T10:46:01.566Z,12.24
2019-03-31T10:47:01.561Z,12.18
2019-03-31T10:48:01.558Z,12.17
2019-03-31T10:49:01.552Z,12.22
2019-03-31T10:50:01.549Z,12.25
2019-03-31T10:51:01.548Z,12.25
2019-03-31T10:52:01.546Z,12.24
2019-03-31T10:53:01.541Z,12.29
2019-03-31T10:54:04.454Z,12.21
2019-03-31T10:55:01.538Z,12.22
2019-03-31T10:56:01.535Z,12.03
2019-03-31T10:57:01.530Z,12.13
2019-03-31T10:58:01.531Z,11.83
2019-03-31T10:59:01.534Z,11.80
2019-03-31T11:00:01.523Z,11.97
2019-03-31T11:01:01.519Z,11.91
2019-03-31T11:02:01.517Z,11.87
2019-03-31T11:03:01.516Z,11.95
2019-03-31T11:04:01.516Z,12.00
2019-03-31T11:05:01.508Z,11.75
2019-03-31T11:06:01.509Z,11.97
2019-03-31T11:07:03.494Z,12.15
2019-03-31T11:08:01.503Z,12.12
2019-03-31T11:09:01.500Z,12.28
2019-03-31T11:10:01.503Z,12.39
2019-03-31T11:11:01.493Z,12.61
2019-03-31T11:12:01.492Z,12.72
2019-03-31T11:13:01.490Z,12.79
2019-03-31T11:14:01.487Z,12.80
2019-03-31T11:15:01.484Z,12.83
2019-03-31T11:16:01.482Z,12.80
2019-03-31T11:17:01.480Z,12.55
2019-03-31T11:18:01.478Z,12.13
2019-03-31T11:19:01.525Z,11.97
2019-03-31T11:20:01.509Z,11.86
2019-03-31T11:21:01.470Z,11.80
2019-03-31T11:22:01.466Z,11.80
2019-03-31T11:23:01.469Z,11.77
2019-03-31T11:24:01.463Z,11.90
2019-03-31T11:25:01.459Z,11.86
2019-03-31T11:26:01.461Z,11.94
2019-03-31T11:27:01.454Z,11.86
2019-03-31T11:28:01.450Z,11.80
2019-03-31T11:29:01.447Z,11.77
2019-03-31T11:30:01.445Z,12.04
2019-03-31T11:31:01.442Z,12.13
2019-03-31T11:32:01.441Z,12.04
2019-03-31T11:33:01.436Z,12.32
2019-03-31T11:34:01.435Z,12.55
2019-03-31T11:35:01.437Z,12.62
2019-03-31T11:36:01.431Z,12.64
2019-03-31T11:37:13.032Z,12.67
2019-03-31T11:38:01.424Z,12.68
2019-03-31T11:39:01.425Z,12.67
2019-03-31T11:40:01.419Z,12.73
2019-03-31T11:41:01.417Z,12.75
2019-03-31T11:42:01.417Z,12.64
2019-03-31T11:43:01.427Z,12.67
2019-03-31T11:44:01.412Z,12.65
2019-03-31T11:45:01.407Z,12.49
2019-03-31T11:46:01.404Z,12.35
2019-03-31T11:47:01.405Z,12.42
2019-03-31T11:48:01.400Z,12.45
2019-03-31T11:49:01.398Z,12.47
2019-03-31T11:50:01.395Z,12.53
2019-03-31T11:51:01.394Z,12.46
2019-03-31T11:52:01.394Z,12.40
2019-03-31T11:53:01.388Z,12.39
2019-03-31T11:54:01.387Z,12.58
2019-03-31T11:55:01.385Z,12.68
2019-03-31T11:56:01.383Z,12.82
2019-03-31T11:57:01.381Z,13.00
2019-03-31T11:58:01.380Z,13.00
2019-03-31T11:59:01.377Z,13.12
2019-03-31T12:00:01.375Z,13.01
2019-03-31T12:01:01.372Z,13.08
2019-03-31T12:02:01.368Z,13.20
2019-03-31T12:03:01.372Z,13.44
2019-03-31T12:04:01.366Z,13.30
2019-03-31T12:05:01.364Z,13.15
2019-03-31T12:06:01.364Z,13.16
2019-03-31T12:07:01.364Z,12.97
2019-03-31T12:08:01.356Z,12.94
2019-03-31T12:09:01.355Z,12.90
2019-03-31T12:10:01.353Z,13.01
2019-03-31T12:11:01.351Z,12.97
2019-03-31T12:12:01.350Z,12.85
2019-03-31T12:13:01.345Z,12.85
2019-03-31T12:14:01.346Z,12.79
2019-03-31T12:15:01.513Z,12.65
2019-03-31T12:16:01.343Z,12.75
2019-03-31T12:17:01.337Z,12.83
2019-03-31T12:18:01.338Z,12.78
2019-03-31T12:19:01.341Z,12.86
2019-03-31T12:20:01.332Z,12.95
2019-03-31T12:21:01.331Z,12.98
2019-03-31T12:22:01.329Z,13.00
2019-03-31T12:23:01.326Z,12.94
2019-03-31T12:24:01.325Z,12.90
2019-03-31T12:25:01.325Z,12.79
2019-03-31T12:26:01.327Z,12.85
2019-03-31T12:27:01.318Z,12.86
2019-03-31T12:28:01.322Z,12.60
2019-03-31T12:29:01.314Z,12.62
2019-03-31T12:30:01.317Z,12.76
2019-03-31T12:31:01.311Z,12.82
2019-03-31T12:32:01.314Z,12.83
2019-03-31T12:33:01.304Z,12.94
2019-03-31T12:34:01.304Z,13.01
2019-03-31T12:35:01.318Z,13.22
2019-03-31T12:36:01.301Z,13.37
2019-03-31T12:37:01.296Z,13.49
2019-03-31T12:38:01.296Z,13.62
2019-03-31T12:39:01.293Z,13.59
2019-03-31T12:40:01.292Z,13.56
2019-03-31T12:41:01.289Z,13.37
2019-03-31T12:42:01.287Z,13.33
2019-03-31T12:43:01.283Z,13.42
2019-03-31T12:44:01.284Z,13.27
2019-03-31T12:45:01.286Z,13.27
2019-03-31T12:46:01.279Z,13.16
2019-03-31T12:47:01.281Z,13.38
2019-03-31T12:48:01.487Z,13.41
2019-03-31T12:49:01.272Z,13.30
2019-03-31T12:50:01.277Z,12.93
2019-03-31T12:51:01.269Z,13.16
2019-03-31T12:52:01.270Z,13.11
2019-03-31T12:53:01.266Z,12.97
2019-03-31T12:54:01.266Z,13.03
2019-03-31T12:55:01.266Z,13.25
2019-03-31T12:56:01.261Z,13.30
2019-03-31T12:57:01.259Z,13.20
2019-03-31T12:58:01.257Z,13.33
2019-03-31T12:59:01.254Z,13.31
2019-03-31T13:00:01.254Z,13.20
2019-03-31T13:01:01.252Z,12.80
2019-03-31T13:02:01.250Z,12.82
2019-03-31T13:03:01.248Z,12.85
2019-03-31T13:04:01.247Z,12.85
2019-03-31T13:05:01.250Z,12.68